Hudson Oaks, Texas
Current Conditions -  °F | °C
As of 6:55 PM on Friday 24 Oct 2014 (Local Time) from KGDJ Reporting Station
Clear Clear  
Wind Chill: 82°   Ceiling: Unl
Heat Index: 82°   Visibility: 10mi
Dew Point: 60°   Wind: 5mph
Humidity: 48%   Direction: 140°SE
Pressure: 30.07"   Gusts: NA
Location:  32.6854°N, 97.7998°W
Report Text: KGDJ 242355Z AUTO 14004KT 10SM CLR 28/16 A3007 RMK AO2 T02750156 10307 20275
Loading
Personal Weather Stations






























Interactive Weather Map
Tropical Storm Tracking
New forecast layout! Learn more

10-Day Weather Forecast

Advertisements
Track Severe Weather on mobile